Aérodrome :
LOGIN :

S'inscrire | Disclaimer

   EN    FR    IT 

 










Légende :    VFR   VFR Marginal   IFR   IFR Intensif   IFR Très Intensif
Visi : 
Plafond : 
>= 8 km
>= 3000ft
5 à 8 km
1000 à 3000 ft
1500m à 5 km
500 à 1000 ft
800 à 1500m
200 à 500 ft
< 800m
< 200 ft
Symboles :   Orages  Brouillard  Fortes neiges  Fortes précipitations  Vent > 20 kt
SIGMETs :   Divers  Orages  Givrage  Turbulence  Onde Orograph.  Cendres Volcan.







- Altitude de l'aérodrome : 117 ft
- Code IATA : NWI
- Voir les cartes d'approche


EGSH - Norwich

DERNIER METAR :
  • 171120Z 22008KT 9000 NSC 01/M00 Q1022 NOSIG

METARs EXPIRÉS :
  • 171050Z 21007KT 9000 NSC 00/M00 Q1022
  • 171020Z 23006KT 7000 NSC 00/M00 Q1023 TEMPO 4000 BR BKN002
  • 170950Z 23005KT 7000 NSC M00/M01 Q1023 TEMPO 4000 BR BKN002
  • 170920Z 22006KT 7000 NSC M01/M01 Q1023 TEMPO 4500 BR
  • 170850Z 22005KT 7000 NSC M02/M02 Q1023 TEMPO 4500 BR

TAF TAF EGSH
Valide du 17 à 12h jusqu'au 17 à 21h UTC


171107Z 1712/1721 21010KT 9999 FEW012 SCT030
BECMG 1712/1715 8000 -RA BKN010
TEMPO 1714/1719 5000 RA -RADZ BKN006
PROB30
TEMPO 1714/1718 3000 RADZ BKN004
ATIS : +44 1603 420 640
Pas de NOTAMs connus pour ce terrain.



MET'MAP, la Météo Aéronautique d'un coup d'oeil ! - Copyright ORBIFLY Décembre 2007 - Disclaimer

ORBIFLY MET'MAP TEAM :

Programmation & Développement : Alexandra Zaïnal
Conception & Développement : Baudouin d'Aumeries
Co-Programmation & Développement : Marc-Olivier Méhu
Soutien technique & logistique : Manuel Goepfert

Contact : metmap@orbifly.com




SOURCES & CREDITS :

   NOAA